Time;durP1;ratioP1;P1;durP2;ratioP2;P2;SDS_P1;SDS_P2;PMS_P1;PMS_P2;Temp;Humidity;BMP_temperature;BMP_pressure;BME280_temperature;BME280_humidity;BME280_pressure;Samples;Min_cycle;Max_cycle;Signal;HPM_P1;HPM_P2
2022/07/10 00:01:25;;;;;;;;;1.00;1.00;;;;;;;;5095870;27;46356;-68
2022/07/10 00:03:51;;;;;;;;;3.50;2.00;;;;;;;;5096120;27;45167;-67
2022/07/10 00:06:16;;;;;;;;;1.25;1.25;;;;;;;;5096704;27;45420;-67
2022/07/10 00:08:42;;;;;;;;;2.50;2.00;;;;;;;;5112835;27;45206;-66
2022/07/10 00:11:08;;;;;;;;;0.75;0.75;;;;;;;;5098832;27;47487;-66
2022/07/10 00:13:33;;;;;;;;;1.50;1.50;;;;;;;;5117295;27;45285;-66
2022/07/10 00:15:58;;;;;;;;;2.50;2.50;;;;;;;;5117434;27;45652;-65
2022/07/10 00:18:24;;;;;;;;;2.00;2.00;;;;;;;;5116097;27;45526;-66
2022/07/10 00:20:49;;;;;;;;;2.00;2.00;;;;;;;;5093202;27;47836;-66
2022/07/10 00:23:14;;;;;;;;;2.75;1.75;;;;;;;;5096284;27;45459;-67
2022/07/10 00:25:39;;;;;;;;;2.00;2.00;;;;;;;;5096719;27;45361;-66
2022/07/10 00:28:04;;;;;;;;;3.50;1.75;;;;;;;;5096472;27;45461;-67
2022/07/10 00:30:30;;;;;;;;;3.50;2.50;;;;;;;;5096444;27;45976;-67
2022/07/10 00:32:55;;;;;;;;;3.00;2.00;;;;;;;;5095605;27;45423;-67
2022/07/10 00:35:20;;;;;;;;;2.00;2.00;;;;;;;;5096297;27;45392;-67
2022/07/10 00:37:45;;;;;;;;;2.00;2.00;;;;;;;;5106407;27;45372;-66
2022/07/10 00:40:12;;;;;;;;;4.50;2.75;;;;;;;;5100625;27;45649;-67
2022/07/10 00:42:37;;;;;;;;;0.50;0.50;;;;;;;;5089049;27;45463;-66
2022/07/10 00:45:02;;;;;;;;;3.25;3.00;;;;;;;;5071569;27;45477;-66
2022/07/10 00:47:28;;;;;;;;;2.00;1.50;;;;;;;;5095272;27;45505;-67
2022/07/10 00:49:53;;;;;;;;;2.00;2.00;;;;;;;;5094380;27;46535;-67
2022/07/10 00:52:19;;;;;;;;;1.50;1.50;;;;;;;;5094733;27;45363;-67
2022/07/10 00:54:45;;;;;;;;;2.25;2.25;;;;;;;;5069794;27;45393;-66
2022/07/10 00:57:12;;;;;;;;;3.00;3.00;;;;;;;;5092112;27;45458;-66
2022/07/10 00:59:37;;;;;;;;;4.00;2.75;;;;;;;;5094621;27;48469;-66
2022/07/10 01:02:03;;;;;;;;;2.50;2.50;;;;;;;;5096119;27;45438;-65
2022/07/10 01:04:29;;;;;;;;;2.00;2.00;;;;;;;;5096143;27;45348;-65
2022/07/10 01:06:54;;;;;;;;;2.00;2.00;;;;;;;;5096996;27;45269;-67
2022/07/10 01:09:19;;;;;;;;;2.00;2.00;;;;;;;;5098197;27;48400;-66
2022/07/10 01:11:45;;;;;;;;;3.00;2.00;;;;;;;;5081149;27;46186;-66
2022/07/10 01:14:10;;;;;;;;;2.00;2.00;;;;;;;;5080988;27;45361;-66
2022/07/10 01:16:36;;;;;;;;;2.00;2.00;;;;;;;;5099548;27;45275;-65
2022/07/10 01:19:02;;;;;;;;;4.00;3.00;;;;;;;;5099315;27;46275;-65
2022/07/10 01:21:34;;;;;;;;;2.75;2.75;;;;;;;;5099233;27;45393;-65
2022/07/10 01:24:00;;;;;;;;;2.50;2.50;;;;;;;;5081123;27;45691;-66
2022/07/10 01:26:25;;;;;;;;;3.75;3.00;;;;;;;;5080915;27;45374;-65
2022/07/10 01:28:51;;;;;;;;;2.00;1.50;;;;;;;;5080682;27;48928;-66
2022/07/10 01:31:23;;;;;;;;;3.25;2.00;;;;;;;;5099027;27;45362;-66
2022/07/10 01:33:49;;;;;;;;;3.75;1.50;;;;;;;;5080170;27;45642;-66
2022/07/10 01:36:14;;;;;;;;;2.25;2.25;;;;;;;;5088667;27;45333;-66
2022/07/10 01:38:40;;;;;;;;;3.00;3.00;;;;;;;;5060376;28;48443;-65
2022/07/10 01:41:06;;;;;;;;;3.25;2.00;;;;;;;;5060058;28;45940;-66
2022/07/10 01:43:31;;;;;;;;;2.50;2.50;;;;;;;;5068429;27;45476;-66
2022/07/10 01:45:56;;;;;;;;;2.00;2.00;;;;;;;;5080680;27;45637;-65
2022/07/10 01:48:21;;;;;;;;;2.00;2.00;;;;;;;;5098872;27;45980;-64
2022/07/10 01:50:47;;;;;;;;;1.25;1.25;;;;;;;;5080460;27;46311;-67
2022/07/10 01:53:12;;;;;;;;;2.00;2.00;;;;;;;;5098973;27;45609;-66
2022/07/10 01:55:37;;;;;;;;;2.75;2.75;;;;;;;;5080552;27;45452;-65
2022/07/10 01:58:03;;;;;;;;;3.00;1.75;;;;;;;;5098756;27;45399;-66
2022/07/10 02:00:28;;;;;;;;;2.00;1.00;;;;;;;;5080250;27;45635;-66
2022/07/10 02:05:37;;;;;;;;;3.50;3.00;;;;;;;;5098762;27;45300;-65
2022/07/10 02:08:03;;;;;;;;;1.00;1.00;;;;;;;;5098525;27;46401;-65
2022/07/10 02:10:28;;;;;;;;;3.00;2.50;;;;;;;;5098654;27;45297;-66
2022/07/10 02:12:54;;;;;;;;;3.00;3.00;;;;;;;;5099047;27;45242;-66
2022/07/10 02:15:19;;;;;;;;;3.00;2.75;;;;;;;;5098863;27;45373;-66
2022/07/10 02:17:44;;;;;;;;;3.00;3.00;;;;;;;;5080043;27;46327;-66
2022/07/10 02:20:10;;;;;;;;;2.50;2.00;;;;;;;;5079943;27;45550;-65
2022/07/10 02:22:36;;;;;;;;;3.00;3.00;;;;;;;;5098687;27;45267;-66
2022/07/10 02:25:01;;;;;;;;;2.50;2.50;;;;;;;;5098415;27;45148;-65
2022/07/10 02:27:26;;;;;;;;;2.25;1.75;;;;;;;;5098151;27;45412;-66
2022/07/10 02:29:51;;;;;;;;;0.50;0.50;;;;;;;;5080054;27;45310;-66
2022/07/10 02:32:16;;;;;;;;;2.75;2.00;;;;;;;;5098447;27;45798;-66
2022/07/10 02:34:42;;;;;;;;;4.25;3.50;;;;;;;;5098236;27;45297;-66
2022/07/10 02:37:07;;;;;;;;;3.00;3.00;;;;;;;;5079503;27;47395;-67
2022/07/10 02:39:32;;;;;;;;;1.50;1.50;;;;;;;;5098029;27;45192;-65
2022/07/10 02:41:57;;;;;;;;;1.75;1.75;;;;;;;;5098363;27;45641;-65
2022/07/10 02:44:22;;;;;;;;;1.25;1.25;;;;;;;;5098120;27;45356;-66
2022/07/10 02:46:48;;;;;;;;;3.75;3.75;;;;;;;;5097929;27;46536;-66
2022/07/10 02:49:13;;;;;;;;;3.50;3.00;;;;;;;;5079644;27;46029;-66
2022/07/10 02:51:38;;;;;;;;;3.25;2.75;;;;;;;;5097902;27;45209;-66
2022/07/10 02:54:03;;;;;;;;;3.75;3.50;;;;;;;;5098001;27;45715;-67
2022/07/10 02:56:29;;;;;;;;;2.50;2.50;;;;;;;;5079425;27;48415;-66
2022/07/10 02:58:54;;;;;;;;;4.75;4.00;;;;;;;;5097845;27;45384;-66
2022/07/10 03:01:19;;;;;;;;;3.25;3.25;;;;;;;;5079310;27;45319;-66
2022/07/10 03:03:44;;;;;;;;;2.25;2.25;;;;;;;;5079471;27;45638;-66
2022/07/10 03:06:09;;;;;;;;;4.00;4.00;;;;;;;;5097563;27;45352;-65
2022/07/10 03:08:35;;;;;;;;;5.00;4.00;;;;;;;;5097617;27;45462;-65
2022/07/10 03:11:00;;;;;;;;;2.75;2.75;;;;;;;;5097615;27;45315;-65
2022/07/10 03:13:25;;;;;;;;;4.00;4.00;;;;;;;;5079230;27;45553;-65
2022/07/10 03:15:53;;;;;;;;;3.25;3.25;;;;;;;;5097440;27;45366;-65
2022/07/10 03:18:18;;;;;;;;;2.75;2.75;;;;;;;;5079216;27;45343;-65
2022/07/10 03:20:43;;;;;;;;;3.00;3.00;;;;;;;;5078998;27;45316;-66
2022/07/10 03:23:09;;;;;;;;;4.00;3.50;;;;;;;;5097564;27;45306;-66
2022/07/10 03:25:34;;;;;;;;;4.50;4.00;;;;;;;;5097233;27;46430;-66
2022/07/10 03:27:59;;;;;;;;;3.00;3.00;;;;;;;;5078919;27;45283;-65
2022/07/10 03:30:24;;;;;;;;;2.25;2.25;;;;;;;;5078518;27;45432;-65
2022/07/10 03:32:49;;;;;;;;;3.00;2.75;;;;;;;;5078932;27;45502;-66
2022/07/10 03:35:15;;;;;;;;;3.00;3.00;;;;;;;;5078598;27;48888;-65
2022/07/10 03:37:40;;;;;;;;;1.25;1.25;;;;;;;;5097186;27;45172;-65
2022/07/10 03:40:05;;;;;;;;;3.00;1.00;;;;;;;;5097068;27;45465;-66
2022/07/10 03:42:30;;;;;;;;;3.25;3.25;;;;;;;;5097165;27;45302;-66
2022/07/10 03:44:56;;;;;;;;;1.75;1.75;;;;;;;;5078396;27;47375;-67
2022/07/10 03:47:21;;;;;;;;;4.00;4.00;;;;;;;;5097041;27;45298;-66
2022/07/10 03:49:46;;;;;;;;;4.50;2.75;;;;;;;;5078926;27;45408;-66
2022/07/10 03:52:11;;;;;;;;;3.75;3.75;;;;;;;;5078344;27;45211;-65
2022/07/10 03:54:37;;;;;;;;;3.00;3.00;;;;;;;;5096965;27;45767;-65
2022/07/10 03:59:46;;;;;;;;;2.00;2.00;;;;;;;;5096765;27;45448;-65
2022/07/10 04:02:11;;;;;;;;;5.00;3.75;;;;;;;;5078476;27;45184;-65
2022/07/10 04:04:37;;;;;;;;;2.25;1.75;;;;;;;;5078061;27;46535;-65
2022/07/10 04:07:03;;;;;;;;;2.25;2.25;;;;;;;;5078203;27;45401;-65
2022/07/10 04:09:29;;;;;;;;;6.00;4.75;;;;;;;;5078430;27;45370;-64
2022/07/10 04:11:54;;;;;;;;;3.75;3.75;;;;;;;;5096832;27;45324;-64
2022/07/10 04:14:19;;;;;;;;;4.00;3.50;;;;;;;;5096548;27;45278;-65
2022/07/10 04:16:44;;;;;;;;;3.50;3.00;;;;;;;;5078253;27;46335;-66
2022/07/10 04:19:09;;;;;;;;;2.00;2.00;;;;;;;;5078633;27;45495;-66
2022/07/10 04:21:35;;;;;;;;;6.50;3.75;;;;;;;;5078269;27;45452;-66
2022/07/10 04:24:00;;;;;;;;;5.25;3.50;;;;;;;;5078018;27;47570;-67
2022/07/10 04:26:25;;;;;;;;;2.25;2.25;;;;;;;;5096538;27;45342;-65
2022/07/10 04:28:50;;;;;;;;;2.75;2.75;;;;;;;;5096400;27;45399;-66
2022/07/10 04:31:16;;;;;;;;;2.25;2.00;;;;;;;;5096337;27;45323;-66
2022/07/10 04:33:41;;;;;;;;;6.00;4.75;;;;;;;;5096413;27;45364;-65
2022/07/10 04:36:06;;;;;;;;;3.75;3.75;;;;;;;;5074294;28;45347;-65
2022/07/10 04:38:31;;;;;;;;;4.50;4.50;;;;;;;;5057784;28;45291;-65
2022/07/10 04:40:57;;;;;;;;;3.00;3.00;;;;;;;;5075892;28;45374;-66
2022/07/10 04:43:22;;;;;;;;;2.50;2.00;;;;;;;;5078917;28;45697;-65
2022/07/10 04:45:47;;;;;;;;;4.00;2.75;;;;;;;;5079498;28;45440;-65
2022/07/10 04:48:13;;;;;;;;;4.75;4.75;;;;;;;;5079514;28;45306;-66
2022/07/10 04:50:38;;;;;;;;;3.75;0.75;;;;;;;;5079562;28;45339;-66
2022/07/10 04:53:03;;;;;;;;;2.75;2.75;;;;;;;;5079124;28;46446;-66
2022/07/10 04:55:29;;;;;;;;;3.00;2.25;;;;;;;;5079076;28;45368;-66
2022/07/10 04:57:54;;;;;;;;;3.75;3.75;;;;;;;;5061169;28;45338;-66
2022/07/10 05:00:19;;;;;;;;;4.50;2.00;;;;;;;;5079398;28;45292;-67
2022/07/10 05:02:44;;;;;;;;;3.50;3.50;;;;;;;;5079334;27;45485;-65
2022/07/10 05:05:10;;;;;;;;;4.00;3.00;;;;;;;;5079048;28;45208;-65
2022/07/10 05:07:35;;;;;;;;;2.00;2.00;;;;;;;;5061186;28;45359;-66
2022/07/10 05:10:00;;;;;;;;;3.75;3.75;;;;;;;;5079311;28;45301;-66
2022/07/10 05:12:26;;;;;;;;;3.50;2.75;;;;;;;;5060752;28;47912;-66
2022/07/10 05:14:51;;;;;;;;;4.75;4.25;;;;;;;;5079114;28;45327;-66
2022/07/10 05:17:16;;;;;;;;;2.50;2.50;;;;;;;;5079044;28;45297;-66
2022/07/10 05:19:41;;;;;;;;;3.75;3.75;;;;;;;;5079022;28;45234;-65
2022/07/10 05:22:07;;;;;;;;;3.00;3.00;;;;;;;;5078933;28;45816;-66
2022/07/10 05:24:32;;;;;;;;;3.25;3.25;;;;;;;;5078833;28;45319;-65
2022/07/10 05:26:58;;;;;;;;;3.75;3.75;;;;;;;;5078285;28;45461;-67
2022/07/10 05:29:23;;;;;;;;;3.00;3.00;;;;;;;;5059802;28;45589;-67
2022/07/10 05:31:48;;;;;;;;;4.25;3.00;;;;;;;;5078681;28;45907;-65
2022/07/10 05:34:13;;;;;;;;;6.50;4.00;;;;;;;;5077589;28;45438;-67
2022/07/10 05:36:38;;;;;;;;;4.25;4.25;;;;;;;;5091634;27;45412;-67
2022/07/10 05:39:04;;;;;;;;;4.50;4.50;;;;;;;;5067716;27;45369;-66
2022/07/10 05:41:29;;;;;;;;;4.00;4.00;;;;;;;;5099033;27;46797;-66
2022/07/10 05:43:55;;;;;;;;;3.00;3.00;;;;;;;;5097718;27;45394;-66
2022/07/10 05:46:20;;;;;;;;;4.00;4.00;;;;;;;;5097414;27;45420;-65
2022/07/10 05:48:45;;;;;;;;;5.50;3.50;;;;;;;;5079319;27;45524;-67
2022/07/10 05:51:11;;;;;;;;;4.00;4.00;;;;;;;;5097051;27;46286;-65
2022/07/10 05:53:36;;;;;;;;;3.75;2.75;;;;;;;;5086096;27;45512;-65
2022/07/10 05:56:02;;;;;;;;;3.00;3.00;;;;;;;;5097581;27;45418;-67
2022/07/10 05:58:27;;;;;;;;;4.25;4.25;;;;;;;;5074777;27;45488;-66
2022/07/10 06:00:53;;;;;;;;;3.00;3.00;;;;;;;;5079388;27;47336;-66
2022/07/10 06:03:18;;;;;;;;;3.00;3.00;;;;;;;;5097155;27;45428;-66
2022/07/10 06:05:43;;;;;;;;;3.75;3.75;;;;;;;;5079050;27;45373;-65
2022/07/10 06:08:10;;;;;;;;;4.00;4.00;;;;;;;;5096932;27;45412;-66
2022/07/10 06:10:35;;;;;;;;;3.50;3.25;;;;;;;;5078117;27;49123;-66
2022/07/10 06:13:00;;;;;;;;;4.75;4.00;;;;;;;;5095616;27;45203;-65
2022/07/10 06:15:25;;;;;;;;;4.00;4.00;;;;;;;;5096303;27;45877;-67
2022/07/10 06:17:51;;;;;;;;;6.00;4.00;;;;;;;;5097397;27;45436;-66
2022/07/10 06:20:16;;;;;;;;;5.25;3.75;;;;;;;;5078548;27;47426;-66
2022/07/10 06:22:42;;;;;;;;;4.00;4.00;;;;;;;;5078927;27;46059;-66
2022/07/10 06:25:07;;;;;;;;;5.00;4.00;;;;;;;;5078777;27;45369;-67
2022/07/10 06:27:33;;;;;;;;;3.50;2.75;;;;;;;;5114663;27;45439;-66
2022/07/10 06:29:59;;;;;;;;;5.75;4.25;;;;;;;;5116138;27;46593;-65
2022/07/10 06:32:24;;;;;;;;;4.00;4.00;;;;;;;;5102124;27;45749;-66
2022/07/10 06:34:51;;;;;;;;;2.67;2.67;;;;;;;;5032419;27;1293760;-67
2022/07/10 06:37:16;;;;;;;;;2.75;2.75;;;;;;;;5079648;27;45933;-65
2022/07/10 06:39:41;;;;;;;;;7.50;4.75;;;;;;;;5107594;27;45379;-64
2022/07/10 06:42:06;;;;;;;;;4.50;3.50;;;;;;;;5118745;27;45537;-63
2022/07/10 06:44:32;;;;;;;;;4.00;4.00;;;;;;;;5100489;27;45322;-62
2022/07/10 06:49:43;;;;;;;;;4.50;3.00;;;;;;;;5097983;27;45863;-62
2022/07/10 06:52:08;;;;;;;;;2.00;2.00;;;;;;;;5097395;27;45362;-65
2022/07/10 06:54:34;;;;;;;;;2.50;2.50;;;;;;;;5078965;27;45300;-64
2022/07/10 06:56:59;;;;;;;;;2.00;2.00;;;;;;;;5079360;27;45275;-65
2022/07/10 06:59:24;;;;;;;;;2.25;2.00;;;;;;;;5079349;27;48634;-66
2022/07/10 07:01:50;;;;;;;;;4.25;3.50;;;;;;;;5097790;27;45380;-63
2022/07/10 07:04:15;;;;;;;;;2.75;1.75;;;;;;;;5096145;27;45522;-63
2022/07/10 07:06:40;;;;;;;;;4.75;3.50;;;;;;;;5070230;27;45444;-65
2022/07/10 07:09:05;;;;;;;;;2.25;2.25;;;;;;;;5079290;27;48607;-64
2022/07/10 07:11:31;;;;;;;;;3.50;2.75;;;;;;;;5078009;27;45676;-66
2022/07/10 07:13:56;;;;;;;;;2.25;2.25;;;;;;;;5079114;27;45284;-65
2022/07/10 07:16:27;;;;;;;;;8.00;3.00;;;;;;;;5077264;27;45348;-65
2022/07/10 07:18:54;;;;;;;;;1.75;1.75;;;;;;;;5077741;27;47906;-65
2022/07/10 07:24:04;;;;;;;;;1.50;1.50;;;;;;;;5097631;27;45394;-64
2022/07/10 07:26:29;;;;;;;;;2.50;2.50;;;;;;;;5078207;27;45470;-64
2022/07/10 07:28:54;;;;;;;;;4.00;3.00;;;;;;;;5078767;27;47576;-64
2022/07/10 07:31:19;;;;;;;;;3.50;2.00;;;;;;;;5097430;27;45389;-63
2022/07/10 07:33:45;;;;;;;;;3.00;1.75;;;;;;;;5078579;27;45337;-63
2022/07/10 07:36:10;;;;;;;;;3.00;2.50;;;;;;;;5068732;28;45570;-64
2022/07/10 07:38:35;;;;;;;;;3.75;2.25;;;;;;;;5065908;28;48491;-64
2022/07/10 07:41:01;;;;;;;;;2.75;2.75;;;;;;;;5058143;28;46276;-66
2022/07/10 07:43:26;;;;;;;;;4.00;4.00;;;;;;;;5076674;28;45326;-64
2022/07/10 07:45:51;;;;;;;;;2.50;2.50;;;;;;;;5075676;28;45362;-66
2022/07/10 07:48:16;;;;;;;;;2.75;2.75;;;;;;;;5075207;28;45444;-64
2022/07/10 07:50:42;;;;;;;;;1.50;1.50;;;;;;;;5062809;27;45515;-65
2022/07/10 07:53:07;;;;;;;;;3.00;3.00;;;;;;;;5058316;28;45550;-63
2022/07/10 07:55:33;;;;;;;;;3.25;3.00;;;;;;;;5056538;28;45841;-65
2022/07/10 07:57:59;;;;;;;;;3.00;3.00;;;;;;;;5076241;28;45928;-64
2022/07/10 08:00:25;;;;;;;;;4.50;4.50;;;;;;;;5068374;28;45952;-65
2022/07/10 08:02:51;;;;;;;;;4.00;3.00;;;;;;;;5059175;28;45395;-63
2022/07/10 08:05:16;;;;;;;;;3.50;1.75;;;;;;;;5073250;27;45416;-63
2022/07/10 08:07:44;;;;;;;;;2.75;2.75;;;;;;;;5078141;27;47910;-64
2022/07/10 08:10:11;;;;;;;;;2.50;2.50;;;;;;;;5095485;27;46395;-64
2022/07/10 08:12:36;;;;;;;;;2.00;2.00;;;;;;;;5094688;27;45503;-64
2022/07/10 08:15:02;;;;;;;;;1.25;1.25;;;;;;;;5057529;28;45449;-65
2022/07/10 08:17:27;;;;;;;;;1.75;1.75;;;;;;;;5075751;28;45646;-64
2022/07/10 08:19:53;;;;;;;;;3.00;2.00;;;;;;;;5076054;28;45636;-65
2022/07/10 08:22:18;;;;;;;;;1.00;1.00;;;;;;;;5056990;28;45283;-64
2022/07/10 08:24:43;;;;;;;;;2.75;2.75;;;;;;;;5057339;28;45604;-64
2022/07/10 08:27:09;;;;;;;;;2.00;2.00;;;;;;;;5057248;28;48715;-63
2022/07/10 08:29:34;;;;;;;;;4.00;3.25;;;;;;;;5056906;27;46230;-63
2022/07/10 08:31:59;;;;;;;;;1.25;1.25;;;;;;;;5058059;28;45414;-63
2022/07/10 08:34:24;;;;;;;;;2.25;2.00;;;;;;;;5057844;28;45345;-63
2022/07/10 08:36:50;;;;;;;;;2.25;2.00;;;;;;;;5057413;28;47957;-63
2022/07/10 08:39:16;;;;;;;;;1.50;1.50;;;;;;;;5075834;28;45475;-64
2022/07/10 08:41:42;;;;;;;;;2.25;2.25;;;;;;;;5056474;28;45393;-66
2022/07/10 08:44:08;;;;;;;;;2.25;2.25;;;;;;;;5058689;28;47360;-67
2022/07/10 08:46:35;;;;;;;;;1.75;1.75;;;;;;;;5075876;28;45841;-66
2022/07/10 08:49:03;;;;;;;;;1.00;1.00;;;;;;;;5075797;28;45357;-65
2022/07/10 08:51:34;;;;;;;;;1.50;1.50;;;;;;;;5075904;28;45309;-64
2022/07/10 08:54:00;;;;;;;;;4.25;2.25;;;;;;;;5075788;28;45365;-64
2022/07/10 08:56:25;;;;;;;;;2.00;2.00;;;;;;;;5075545;28;45373;-65
2022/07/10 08:58:51;;;;;;;;;1.75;1.75;;;;;;;;5075586;28;45372;-63
2022/07/10 09:01:22;;;;;;;;;2.50;1.00;;;;;;;;5075784;28;45263;-64
2022/07/10 09:03:47;;;;;;;;;0.00;0.00;;;;;;;;5075815;28;45425;-64
2022/07/10 09:06:13;;;;;;;;;2.00;2.00;;;;;;;;5057141;28;48710;-64
2022/07/10 09:08:57;;;;;;;;;3.00;2.00;;;;;;;;5075669;28;45420;-62
2022/07/10 09:11:23;;;;;;;;;2.75;2.00;;;;;;;;5057585;28;45363;-62
2022/07/10 09:13:56;;;;;;;;;1.75;1.75;;;;;;;;5057386;28;45403;-63
2022/07/10 09:16:28;;;;;;;;;3.25;2.75;;;;;;;;5075312;28;46183;-64
2022/07/10 09:18:54;;;;;;;;;2.00;2.00;;;;;;;;5075394;28;45344;-64
2022/07/10 09:21:20;;;;;;;;;3.25;2.00;;;;;;;;5057149;28;45411;-63
2022/07/10 09:23:45;;;;;;;;;2.00;2.00;;;;;;;;5075510;28;45349;-64
2022/07/10 09:26:10;;;;;;;;;3.25;2.25;;;;;;;;5075290;28;45622;-63
2022/07/10 09:28:35;;;;;;;;;3.00;3.00;;;;;;;;5077481;28;45362;-64
2022/07/10 09:31:01;;;;;;;;;2.00;2.00;;;;;;;;5060775;28;45495;-64
2022/07/10 09:33:27;;;;;;;;;1.00;1.00;;;;;;;;5078806;28;45349;-63
2022/07/10 09:36:04;;;;;;;;;2.00;0.00;;;;;;;;5084650;27;46388;-63
2022/07/10 09:38:51;;;;;;;;;1.00;1.00;;;;;;;;5079115;27;45408;-61
2022/07/10 09:41:42;;;;;;;;;3.00;3.00;;;;;;;;5097002;27;45299;-61
2022/07/10 09:44:08;;;;;;;;;2.25;2.00;;;;;;;;5093477;27;45463;-62
2022/07/10 09:46:35;;;;;;;;;10.75;10.75;;;;;;;;5078676;27;46438;-63
2022/07/10 09:49:07;;;;;;;;;4.50;4.50;;;;;;;;5096827;27;45464;-61
2022/07/10 09:51:39;;;;;;;;;2.50;2.50;;;;;;;;5097167;27;45335;-62
2022/07/10 09:54:05;;;;;;;;;1.50;1.00;;;;;;;;5097144;27;45541;-62
2022/07/10 09:56:37;;;;;;;;;3.25;3.25;;;;;;;;5078626;27;48464;-64
2022/07/10 09:59:06;;;;;;;;;1.00;1.00;;;;;;;;5097041;27;45554;-63
2022/07/10 10:01:32;;;;;;;;;4.00;4.00;;;;;;;;5096494;27;45369;-63
2022/07/10 10:03:59;;;;;;;;;6.25;6.25;;;;;;;;5097009;27;45714;-62
2022/07/10 10:06:27;;;;;;;;;6.75;6.75;;;;;;;;5097051;27;45699;-62
2022/07/10 10:08:56;;;;;;;;;2.00;2.00;;;;;;;;5096877;27;45400;-62
2022/07/10 10:11:23;;;;;;;;;3.25;3.25;;;;;;;;5096879;27;45349;-62
2022/07/10 10:13:49;;;;;;;;;4.25;4.25;;;;;;;;5096423;27;45458;-64
2022/07/10 10:16:14;;;;;;;;;3.00;2.00;;;;;;;;5077976;27;47744;-63
2022/07/10 10:20:36;;;;;;;;;2.25;2.25;;;;;;;;5077775;27;45418;-65
2022/07/10 10:21:27;;;;;;;;;2.00;2.00;;;;;;;;5096634;27;45911;-64
2022/07/10 10:23:54;;;;;;;;;1.50;0.75;;;;;;;;5096906;27;45415;-63
2022/07/10 10:26:20;;;;;;;;;1.25;1.25;;;;;;;;5096337;27;47360;-64
2022/07/10 10:28:45;;;;;;;;;16.50;16.25;;;;;;;;5096598;27;45448;-63
2022/07/10 10:31:11;;;;;;;;;1.00;1.00;;;;;;;;5098032;27;45785;-62
2022/07/10 10:33:42;;;;;;;;;1.00;1.00;;;;;;;;5115732;27;45332;-63
2022/07/10 10:36:07;;;;;;;;;2.50;2.50;;;;;;;;5116944;27;45401;-63
2022/07/10 10:38:56;;;;;;;;;3.00;3.00;;;;;;;;5116727;27;45554;-63
2022/07/10 10:41:54;;;;;;;;;6.75;6.75;;;;;;;;5104994;27;46056;-63
2022/07/10 10:44:20;;;;;;;;;1.25;1.25;;;;;;;;5085317;27;45418;-63
2022/07/10 10:46:48;;;;;;;;;6.25;6.00;;;;;;;;5095954;27;45721;-62
2022/07/10 10:49:14;;;;;;;;;1.50;1.50;;;;;;;;5095994;27;45421;-63
2022/07/10 10:51:58;;;;;;;;;1.75;1.75;;;;;;;;5096197;27;45456;-63
2022/07/10 10:54:24;;;;;;;;;4.00;3.00;;;;;;;;5096239;27;45421;-64
2022/07/10 10:57:22;;;;;;;;;18.50;18.50;;;;;;;;5077143;27;47572;-63
2022/07/10 10:59:50;;;;;;;;;4.00;4.00;;;;;;;;5032563;28;45367;-63
2022/07/10 11:02:32;;;;;;;;;11.00;7.50;;;;;;;;5015718;28;45519;-64
2022/07/10 11:05:18;;;;;;;;;2.00;2.00;;;;;;;;5032635;28;45743;-63
2022/07/10 11:07:58;;;;;;;;;3.00;3.00;;;;;;;;5021808;28;46176;-64
2022/07/10 11:10:31;;;;;;;;;12.50;12.50;;;;;;;;5032433;28;45459;-64
2022/07/10 11:13:00;;;;;;;;;3.25;3.25;;;;;;;;5032782;28;45411;-63
2022/07/10 11:15:26;;;;;;;;;1.50;0.50;;;;;;;;5032193;28;45443;-64
2022/07/10 11:17:52;;;;;;;;;7.25;7.25;;;;;;;;5032123;28;45946;-63
2022/07/10 11:20:17;;;;;;;;;1.00;1.00;;;;;;;;5032115;28;45466;-66
2022/07/10 11:23:01;;;;;;;;;12.25;11.25;;;;;;;;5015651;28;45386;-64
2022/07/10 11:26:08;;;;;;;;;1.00;1.00;;;;;;;;5032253;28;45489;-65
2022/07/10 11:28:51;;;;;;;;;3.50;3.50;;;;;;;;4972875;28;45837;-65
2022/07/10 11:31:17;;;;;;;;;2.25;2.00;;;;;;;;4972208;28;45464;-65
2022/07/10 11:33:44;;;;;;;;;4.00;2.00;;;;;;;;4972852;28;45572;-65
2022/07/10 11:36:11;;;;;;;;;9.00;6.00;;;;;;;;5004224;28;45609;-66
2022/07/10 11:38:36;;;;;;;;;1.25;1.25;;;;;;;;5011758;28;46771;-65
2022/07/10 11:41:01;;;;;;;;;2.00;1.00;;;;;;;;5012052;28;45456;-66
2022/07/10 11:43:26;;;;;;;;;1.25;1.00;;;;;;;;5011957;28;45355;-66
2022/07/10 11:45:54;;;;;;;;;1.00;1.00;;;;;;;;5011587;28;45629;-65
2022/07/10 11:48:21;;;;;;;;;1.00;1.00;;;;;;;;5011933;28;47657;-66
2022/07/10 11:50:46;;;;;;;;;1.50;1.50;;;;;;;;5011737;28;45716;-65
2022/07/10 11:53:12;;;;;;;;;2.00;2.00;;;;;;;;5012070;28;45507;-66
2022/07/10 11:55:40;;;;;;;;;2.00;2.00;;;;;;;;5012164;28;45402;-64
2022/07/10 11:58:15;;;;;;;;;1.50;1.00;;;;;;;;5012157;27;46164;-65
2022/07/10 12:00:40;;;;;;;;;1.50;1.50;;;;;;;;5076111;27;45441;-65
2022/07/10 12:03:21;;;;;;;;;2.00;2.00;;;;;;;;5076781;27;45474;-65
2022/07/10 12:05:47;;;;;;;;;2.00;2.00;;;;;;;;5070967;27;46668;-69
2022/07/10 12:08:15;;;;;;;;;1.50;1.00;;;;;;;;5100166;27;45734;-63
2022/07/10 12:10:41;;;;;;;;;0.75;0.75;;;;;;;;5093464;27;45452;-64
2022/07/10 12:13:07;;;;;;;;;2.00;2.00;;;;;;;;5102824;27;45371;-66
2022/07/10 12:15:33;;;;;;;;;1.00;1.00;;;;;;;;5101578;27;45506;-65
2022/07/10 12:17:58;;;;;;;;;1.50;1.50;;;;;;;;5109981;27;45407;-64
2022/07/10 12:20:23;;;;;;;;;0.75;0.75;;;;;;;;5097673;27;45401;-64
2022/07/10 12:22:49;;;;;;;;;1.50;1.50;;;;;;;;5090734;27;45690;-66
2022/07/10 12:25:14;;;;;;;;;0.25;0.25;;;;;;;;5103332;27;45405;-65
2022/07/10 12:27:39;;;;;;;;;2.00;1.00;;;;;;;;5101583;27;45641;-65
2022/07/10 12:30:05;;;;;;;;;1.00;1.00;;;;;;;;5110691;27;45591;-63
2022/07/10 12:32:30;;;;;;;;;7.50;7.00;;;;;;;;5079220;27;45393;-64
2022/07/10 12:34:58;;;;;;;;;2.00;2.00;;;;;;;;5088559;27;45403;-65
2022/07/10 12:37:24;;;;;;;;;1.00;1.00;;;;;;;;5105537;27;46541;-65
2022/07/10 12:39:50;;;;;;;;;1.00;1.00;;;;;;;;5100070;27;45451;-64
2022/07/10 12:42:28;;;;;;;;;0.50;0.50;;;;;;;;5112729;27;45350;-64
2022/07/10 12:44:54;;;;;;;;;1.50;1.00;;;;;;;;5102389;27;45494;-64
2022/07/10 12:47:20;;;;;;;;;2.00;2.00;;;;;;;;5105725;27;45430;-66
2022/07/10 12:49:51;;;;;;;;;1.50;1.50;;;;;;;;5109985;27;45351;-64
2022/07/10 12:52:24;;;;;;;;;0.25;0.00;;;;;;;;5098962;27;45433;-65
2022/07/10 12:55:04;;;;;;;;;1.00;1.00;;;;;;;;5109878;27;45352;-65
2022/07/10 12:57:29;;;;;;;;;1.00;1.00;;;;;;;;5107318;27;45740;-65
2022/07/10 13:00:02;;;;;;;;;0.75;0.75;;;;;;;;5100531;27;45313;-66
2022/07/10 13:02:29;;;;;;;;;1.00;1.00;;;;;;;;5113202;27;45234;-64
2022/07/10 13:04:55;;;;;;;;;1.50;1.50;;;;;;;;5105919;27;45471;-65
2022/07/10 13:07:31;;;;;;;;;0.75;0.75;;;;;;;;5108600;27;46555;-65
2022/07/10 13:09:58;;;;;;;;;1.00;1.00;;;;;;;;5096211;27;45430;-65
2022/07/10 13:12:23;;;;;;;;;1.00;1.00;;;;;;;;5102522;27;45464;-65
2022/07/10 13:14:48;;;;;;;;;1.00;1.00;;;;;;;;5113218;27;45476;-64
2022/07/10 13:17:13;;;;;;;;;1.25;1.00;;;;;;;;5089910;27;48229;-68
2022/07/10 13:19:39;;;;;;;;;1.75;1.75;;;;;;;;5106186;27;45722;-65
2022/07/10 13:22:04;;;;;;;;;0.50;0.50;;;;;;;;5115714;27;45487;-64
2022/07/10 13:24:29;;;;;;;;;1.50;1.50;;;;;;;;5100914;27;45332;-64
2022/07/10 13:26:56;;;;;;;;;1.00;1.00;;;;;;;;5112305;27;45612;-64
2022/07/10 13:29:22;;;;;;;;;1.25;0.25;;;;;;;;5109303;27;45290;-65
2022/07/10 13:31:47;;;;;;;;;1.00;1.00;;;;;;;;5104967;27;45451;-65
2022/07/10 13:34:12;;;;;;;;;1.00;1.00;;;;;;;;5096740;27;45598;-65
2022/07/10 13:36:37;;;;;;;;;1.00;1.00;;;;;;;;5102695;27;47217;-64
2022/07/10 13:39:03;;;;;;;;;2.00;1.00;;;;;;;;5092646;27;45304;-64
2022/07/10 13:41:28;;;;;;;;;0.00;0.00;;;;;;;;5110380;27;45368;-65
2022/07/10 13:43:53;;;;;;;;;1.00;1.00;;;;;;;;5102549;27;45371;-65
2022/07/10 13:46:18;;;;;;;;;1.25;1.25;;;;;;;;5115242;27;45581;-65
2022/07/10 13:48:44;;;;;;;;;0.00;0.00;;;;;;;;5103768;27;45355;-65
2022/07/10 13:51:09;;;;;;;;;1.00;1.00;;;;;;;;5110167;27;45547;-65
2022/07/10 13:53:34;;;;;;;;;0.00;0.00;;;;;;;;5111118;27;45147;-64
2022/07/10 13:56:00;;;;;;;;;0.00;0.00;;;;;;;;5101210;27;46614;-65
2022/07/10 13:58:25;;;;;;;;;0.25;0.25;;;;;;;;5115097;27;45275;-65
2022/07/10 14:00:50;;;;;;;;;0.25;0.25;;;;;;;;5086344;27;45380;-65
2022/07/10 14:03:16;;;;;;;;;0.00;0.00;;;;;;;;5109062;27;45327;-65
2022/07/10 14:05:41;;;;;;;;;1.00;1.00;;;;;;;;5093117;27;48090;-65
2022/07/10 14:08:06;;;;;;;;;0.75;0.75;;;;;;;;5101418;27;45357;-66
2022/07/10 14:10:31;;;;;;;;;0.00;0.00;;;;;;;;5096707;27;45343;-65
2022/07/10 14:12:57;;;;;;;;;0.00;0.00;;;;;;;;5086665;27;45415;-65
2022/07/10 14:15:22;;;;;;;;;0.50;0.50;;;;;;;;5107433;27;46446;-64
2022/07/10 14:17:48;;;;;;;;;0.00;0.00;;;;;;;;5112370;27;45365;-66
2022/07/10 14:20:13;;;;;;;;;0.00;0.00;;;;;;;;5099873;27;45411;-66
2022/07/10 14:22:39;;;;;;;;;1.00;1.00;;;;;;;;5112750;27;45305;-65
2022/07/10 14:25:05;;;;;;;;;0.00;0.00;;;;;;;;5105723;27;45718;-65
2022/07/10 14:27:31;;;;;;;;;0.00;0.00;;;;;;;;5088145;27;45356;-65
2022/07/10 14:29:57;;;;;;;;;1.00;1.00;;;;;;;;5113570;27;45200;-65
2022/07/10 14:32:22;;;;;;;;;0.50;0.00;;;;;;;;5101234;27;45247;-65
2022/07/10 14:34:47;;;;;;;;;0.00;0.00;;;;;;;;5110684;27;45287;-66
2022/07/10 14:37:12;;;;;;;;;0.50;0.50;;;;;;;;5077992;27;45344;-66
2022/07/10 14:39:37;;;;;;;;;0.25;0.25;;;;;;;;5084035;27;45287;-66
2022/07/10 14:42:04;;;;;;;;;0.00;0.00;;;;;;;;5093629;27;45329;-65
2022/07/10 14:44:30;;;;;;;;;0.00;0.00;;;;;;;;5080368;27;46176;-65
2022/07/10 14:46:55;;;;;;;;;0.00;0.00;;;;;;;;5075736;28;46007;-65
2022/07/10 14:49:20;;;;;;;;;2.00;1.25;;;;;;;;5086281;27;45435;-65
2022/07/10 14:51:45;;;;;;;;;1.00;1.00;;;;;;;;5075873;28;45491;-65